sensor_id;sensor_type;location;lat;lon;timestamp;P1;durP1;ratioP1;P2;durP2;ratioP2
27939;SDS011;15275;51.716;14.324;2023-01-15T00:01:05;2.92;;;0.93;;
27939;SDS011;15275;51.716;14.324;2023-01-15T00:03:53;2.08;;;1.17;;
27939;SDS011;15275;51.716;14.324;2023-01-15T00:06:21;2.08;;;0.93;;
27939;SDS011;15275;51.716;14.324;2023-01-15T00:08:48;1.73;;;0.93;;
27939;SDS011;15275;51.716;14.324;2023-01-15T00:11:15;2.95;;;1.10;;
27939;SDS011;15275;51.716;14.324;2023-01-15T00:13:42;1.92;;;1.38;;
27939;SDS011;15275;51.716;14.324;2023-01-15T00:16:09;2.88;;;1.67;;
27939;SDS011;15275;51.716;14.324;2023-01-15T00:18:38;2.53;;;1.17;;
27939;SDS011;15275;51.716;14.324;2023-01-15T00:21:05;2.25;;;1.10;;
27939;SDS011;15275;51.716;14.324;2023-01-15T00:23:34;4.05;;;1.30;;
27939;SDS011;15275;51.716;14.324;2023-01-15T00:26:20;3.80;;;1.30;;
27939;SDS011;15275;51.716;14.324;2023-01-15T00:29:05;2.00;;;1.20;;
27939;SDS011;15275;51.716;14.324;2023-01-15T00:31:32;3.90;;;1.30;;
27939;SDS011;15275;51.716;14.324;2023-01-15T00:34:00;1.52;;;1.10;;
27939;SDS011;15275;51.716;14.324;2023-01-15T00:36:26;2.85;;;1.45;;
27939;SDS011;15275;51.716;14.324;2023-01-15T00:38:52;3.80;;;1.63;;
27939;SDS011;15275;51.716;14.324;2023-01-15T00:41:18;2.75;;;0.90;;
27939;SDS011;15275;51.716;14.324;2023-01-15T00:43:44;1.88;;;1.10;;
27939;SDS011;15275;51.716;14.324;2023-01-15T00:46:10;2.28;;;0.90;;
27939;SDS011;15275;51.716;14.324;2023-01-15T00:48:36;2.35;;;0.98;;
27939;SDS011;15275;51.716;14.324;2023-01-15T00:51:03;1.48;;;1.00;;
27939;SDS011;15275;51.716;14.324;2023-01-15T00:53:29;2.97;;;1.23;;
27939;SDS011;15275;51.716;14.324;2023-01-15T00:55:55;1.98;;;0.90;;
27939;SDS011;15275;51.716;14.324;2023-01-15T00:58:21;1.17;;;1.00;;
27939;SDS011;15275;51.716;14.324;2023-01-15T01:00:57;2.35;;;0.93;;
27939;SDS011;15275;51.716;14.324;2023-01-15T01:03:25;1.10;;;0.73;;
27939;SDS011;15275;51.716;14.324;2023-01-15T01:05:52;1.65;;;1.10;;
27939;SDS011;15275;51.716;14.324;2023-01-15T01:08:18;3.15;;;1.02;;
27939;SDS011;15275;51.716;14.324;2023-01-15T01:10:44;3.05;;;0.90;;
27939;SDS011;15275;51.716;14.324;2023-01-15T01:13:10;1.33;;;0.90;;
27939;SDS011;15275;51.716;14.324;2023-01-15T01:15:36;2.05;;;1.00;;
27939;SDS011;15275;51.716;14.324;2023-01-15T01:18:03;1.98;;;0.90;;
27939;SDS011;15275;51.716;14.324;2023-01-15T01:20:30;1.38;;;1.05;;
27939;SDS011;15275;51.716;14.324;2023-01-15T01:22:57;2.08;;;1.25;;
27939;SDS011;15275;51.716;14.324;2023-01-15T01:25:22;2.92;;;1.27;;
27939;SDS011;15275;51.716;14.324;2023-01-15T01:27:48;2.17;;;0.90;;
27939;SDS011;15275;51.716;14.324;2023-01-15T01:30:14;1.15;;;0.90;;
27939;SDS011;15275;51.716;14.324;2023-01-15T01:32:44;1.85;;;0.75;;
27939;SDS011;15275;51.716;14.324;2023-01-15T01:35:10;1.58;;;1.00;;
27939;SDS011;15275;51.716;14.324;2023-01-15T01:37:36;1.10;;;0.90;;
27939;SDS011;15275;51.716;14.324;2023-01-15T01:40:02;1.98;;;0.90;;
27939;SDS011;15275;51.716;14.324;2023-01-15T01:42:29;2.42;;;0.88;;
27939;SDS011;15275;51.716;14.324;2023-01-15T01:45:00;3.50;;;0.90;;
27939;SDS011;15275;51.716;14.324;2023-01-15T01:47:35;1.58;;;0.90;;
27939;SDS011;15275;51.716;14.324;2023-01-15T01:50:03;1.40;;;0.77;;
27939;SDS011;15275;51.716;14.324;2023-01-15T01:52:35;2.20;;;0.90;;
27939;SDS011;15275;51.716;14.324;2023-01-15T01:55:37;2.08;;;0.70;;
27939;SDS011;15275;51.716;14.324;2023-01-15T01:58:04;1.13;;;0.80;;
27939;SDS011;15275;51.716;14.324;2023-01-15T02:00:34;1.13;;;0.75;;
27939;SDS011;15275;51.716;14.324;2023-01-15T02:03:04;1.17;;;0.90;;
27939;SDS011;15275;51.716;14.324;2023-01-15T02:05:33;1.27;;;0.85;;
27939;SDS011;15275;51.716;14.324;2023-01-15T02:08:03;1.50;;;0.68;;
27939;SDS011;15275;51.716;14.324;2023-01-15T02:10:30;0.93;;;0.70;;
27939;SDS011;15275;51.716;14.324;2023-01-15T02:12:59;2.00;;;1.00;;
27939;SDS011;15275;51.716;14.324;2023-01-15T02:15:33;1.63;;;0.90;;
27939;SDS011;15275;51.716;14.324;2023-01-15T02:18:26;1.00;;;0.90;;
27939;SDS011;15275;51.716;14.324;2023-01-15T02:21:06;1.40;;;0.88;;
27939;SDS011;15275;51.716;14.324;2023-01-15T02:27:20;1.60;;;0.70;;
27939;SDS011;15275;51.716;14.324;2023-01-15T02:35:39;1.52;;;0.93;;
27939;SDS011;15275;51.716;14.324;2023-01-15T02:38:14;1.20;;;0.82;;
27939;SDS011;15275;51.716;14.324;2023-01-15T02:40:44;2.78;;;0.75;;
27939;SDS011;15275;51.716;14.324;2023-01-15T02:43:12;1.20;;;0.70;;
27939;SDS011;15275;51.716;14.324;2023-01-15T02:45:42;2.60;;;1.35;;
27939;SDS011;15275;51.716;14.324;2023-01-15T02:48:12;1.70;;;0.90;;
27939;SDS011;15275;51.716;14.324;2023-01-15T02:50:41;1.20;;;0.90;;
27939;SDS011;15275;51.716;14.324;2023-01-15T02:53:11;2.60;;;1.02;;
27939;SDS011;15275;51.716;14.324;2023-01-15T02:55:46;2.10;;;0.90;;
27939;SDS011;15275;51.716;14.324;2023-01-15T02:58:16;1.35;;;0.93;;
27939;SDS011;15275;51.716;14.324;2023-01-15T03:00:56;1.25;;;0.90;;
27939;SDS011;15275;51.716;14.324;2023-01-15T03:03:30;1.55;;;0.90;;
27939;SDS011;15275;51.716;14.324;2023-01-15T03:08:51;1.55;;;0.85;;
27939;SDS011;15275;51.716;14.324;2023-01-15T03:11:17;1.50;;;0.98;;
27939;SDS011;15275;51.716;14.324;2023-01-15T03:13:54;1.52;;;1.00;;
27939;SDS011;15275;51.716;14.324;2023-01-15T03:19:25;2.80;;;1.23;;
27939;SDS011;15275;51.716;14.324;2023-01-15T03:24:58;1.58;;;1.05;;
27939;SDS011;15275;51.716;14.324;2023-01-15T03:27:32;1.90;;;0.98;;
27939;SDS011;15275;51.716;14.324;2023-01-15T03:30:06;1.73;;;1.13;;
27939;SDS011;15275;51.716;14.324;2023-01-15T03:32:44;1.05;;;0.90;;
27939;SDS011;15275;51.716;14.324;2023-01-15T03:38:18;3.08;;;1.15;;
27939;SDS011;15275;51.716;14.324;2023-01-15T03:41:11;1.92;;;1.10;;
27939;SDS011;15275;51.716;14.324;2023-01-15T03:44:13;1.40;;;1.10;;
27939;SDS011;15275;51.716;14.324;2023-01-15T03:50:01;1.95;;;1.15;;
27939;SDS011;15275;51.716;14.324;2023-01-15T03:55:44;2.05;;;0.75;;
27939;SDS011;15275;51.716;14.324;2023-01-15T04:01:38;0.90;;;0.80;;
27939;SDS011;15275;51.716;14.324;2023-01-15T04:04:06;1.55;;;1.08;;
27939;SDS011;15275;51.716;14.324;2023-01-15T04:06:35;2.40;;;0.75;;
27939;SDS011;15275;51.716;14.324;2023-01-15T04:09:04;2.25;;;0.90;;
27939;SDS011;15275;51.716;14.324;2023-01-15T04:11:33;1.00;;;0.80;;
27939;SDS011;15275;51.716;14.324;2023-01-15T04:13:59;1.50;;;0.93;;
27939;SDS011;15275;51.716;14.324;2023-01-15T04:16:26;1.42;;;1.15;;
27939;SDS011;15275;51.716;14.324;2023-01-15T04:18:54;0.75;;;0.75;;
27939;SDS011;15275;51.716;14.324;2023-01-15T04:21:21;1.45;;;0.73;;
27939;SDS011;15275;51.716;14.324;2023-01-15T04:23:47;0.88;;;0.85;;
27939;SDS011;15275;51.716;14.324;2023-01-15T04:26:13;1.23;;;0.90;;
27939;SDS011;15275;51.716;14.324;2023-01-15T04:28:39;1.80;;;0.73;;
27939;SDS011;15275;51.716;14.324;2023-01-15T04:31:06;0.98;;;0.85;;
27939;SDS011;15275;51.716;14.324;2023-01-15T04:33:31;1.42;;;0.80;;
27939;SDS011;15275;51.716;14.324;2023-01-15T04:36:01;1.48;;;0.90;;
27939;SDS011;15275;51.716;14.324;2023-01-15T04:38:28;1.15;;;0.95;;
27939;SDS011;15275;51.716;14.324;2023-01-15T04:40:54;1.05;;;0.82;;
27939;SDS011;15275;51.716;14.324;2023-01-15T04:43:39;1.13;;;0.90;;
27939;SDS011;15275;51.716;14.324;2023-01-15T04:46:24;3.92;;;1.30;;
27939;SDS011;15275;51.716;14.324;2023-01-15T04:48:50;1.75;;;0.90;;
27939;SDS011;15275;51.716;14.324;2023-01-15T04:51:16;1.15;;;1.00;;
27939;SDS011;15275;51.716;14.324;2023-01-15T04:53:42;1.20;;;0.80;;
27939;SDS011;15275;51.716;14.324;2023-01-15T04:56:08;1.67;;;0.80;;
27939;SDS011;15275;51.716;14.324;2023-01-15T04:58:34;1.23;;;1.08;;
27939;SDS011;15275;51.716;14.324;2023-01-15T05:01:00;0.80;;;0.80;;
27939;SDS011;15275;51.716;14.324;2023-01-15T05:03:27;0.85;;;0.73;;
27939;SDS011;15275;51.716;14.324;2023-01-15T05:05:54;1.77;;;1.00;;
27939;SDS011;15275;51.716;14.324;2023-01-15T05:08:25;1.23;;;0.80;;
27939;SDS011;15275;51.716;14.324;2023-01-15T05:10:52;1.25;;;0.73;;
27939;SDS011;15275;51.716;14.324;2023-01-15T05:13:18;1.23;;;0.93;;
27939;SDS011;15275;51.716;14.324;2023-01-15T05:15:43;0.60;;;0.60;;
27939;SDS011;15275;51.716;14.324;2023-01-15T05:18:10;1.17;;;0.85;;
27939;SDS011;15275;51.716;14.324;2023-01-15T05:20:40;0.50;;;0.50;;
27939;SDS011;15275;51.716;14.324;2023-01-15T05:23:06;1.13;;;0.80;;
27939;SDS011;15275;51.716;14.324;2023-01-15T05:25:32;1.35;;;0.85;;
27939;SDS011;15275;51.716;14.324;2023-01-15T05:28:01;1.13;;;0.75;;
27939;SDS011;15275;51.716;14.324;2023-01-15T05:30:26;0.80;;;0.68;;
27939;SDS011;15275;51.716;14.324;2023-01-15T05:32:52;1.45;;;0.73;;
27939;SDS011;15275;51.716;14.324;2023-01-15T05:35:18;1.17;;;0.90;;
27939;SDS011;15275;51.716;14.324;2023-01-15T05:37:44;2.67;;;0.98;;
27939;SDS011;15275;51.716;14.324;2023-01-15T05:40:10;1.95;;;0.70;;
27939;SDS011;15275;51.716;14.324;2023-01-15T05:42:36;2.22;;;0.80;;
27939;SDS011;15275;51.716;14.324;2023-01-15T05:45:02;0.82;;;0.75;;
27939;SDS011;15275;51.716;14.324;2023-01-15T05:47:28;0.70;;;0.70;;
27939;SDS011;15275;51.716;14.324;2023-01-15T05:49:54;2.05;;;0.85;;
27939;SDS011;15275;51.716;14.324;2023-01-15T05:52:20;1.17;;;0.82;;
27939;SDS011;15275;51.716;14.324;2023-01-15T05:54:48;1.10;;;0.93;;
27939;SDS011;15275;51.716;14.324;2023-01-15T05:57:14;1.10;;;0.82;;
27939;SDS011;15275;51.716;14.324;2023-01-15T05:59:40;3.00;;;0.80;;
27939;SDS011;15275;51.716;14.324;2023-01-15T06:02:06;1.63;;;1.00;;
27939;SDS011;15275;51.716;14.324;2023-01-15T06:04:32;1.10;;;0.88;;
27939;SDS011;15275;51.716;14.324;2023-01-15T06:06:57;1.60;;;1.10;;
27939;SDS011;15275;51.716;14.324;2023-01-15T06:09:24;4.38;;;1.10;;
27939;SDS011;15275;51.716;14.324;2023-01-15T06:11:52;1.23;;;0.90;;
27939;SDS011;15275;51.716;14.324;2023-01-15T06:14:19;4.30;;;1.23;;
27939;SDS011;15275;51.716;14.324;2023-01-15T06:16:45;2.33;;;1.00;;
27939;SDS011;15275;51.716;14.324;2023-01-15T06:19:11;2.55;;;0.90;;
27939;SDS011;15275;51.716;14.324;2023-01-15T06:21:38;4.68;;;0.90;;
27939;SDS011;15275;51.716;14.324;2023-01-15T06:24:05;1.55;;;0.90;;
27939;SDS011;15275;51.716;14.324;2023-01-15T06:26:32;1.10;;;0.80;;
27939;SDS011;15275;51.716;14.324;2023-01-15T06:28:58;1.17;;;0.90;;
27939;SDS011;15275;51.716;14.324;2023-01-15T06:31:24;1.55;;;0.90;;
27939;SDS011;15275;51.716;14.324;2023-01-15T06:33:53;1.40;;;0.68;;
27939;SDS011;15275;51.716;14.324;2023-01-15T06:36:20;0.40;;;0.30;;
27939;SDS011;15275;51.716;14.324;2023-01-15T06:38:49;2.55;;;0.57;;
27939;SDS011;15275;51.716;14.324;2023-01-15T06:41:19;0.85;;;0.40;;
27939;SDS011;15275;51.716;14.324;2023-01-15T06:44:06;0.32;;;0.20;;
27939;SDS011;15275;51.716;14.324;2023-01-15T06:47:02;0.35;;;0.30;;
27939;SDS011;15275;51.716;14.324;2023-01-15T06:49:51;1.00;;;0.30;;
27939;SDS011;15275;51.716;14.324;2023-01-15T06:52:20;0.85;;;0.38;;
27939;SDS011;15275;51.716;14.324;2023-01-15T06:54:47;0.40;;;0.40;;
27939;SDS011;15275;51.716;14.324;2023-01-15T06:57:13;1.13;;;0.35;;
27939;SDS011;15275;51.716;14.324;2023-01-15T06:59:39;0.57;;;0.40;;
27939;SDS011;15275;51.716;14.324;2023-01-15T07:02:04;0.30;;;0.22;;
27939;SDS011;15275;51.716;14.324;2023-01-15T07:04:31;1.58;;;0.38;;
27939;SDS011;15275;51.716;14.324;2023-01-15T07:06:56;0.50;;;0.40;;
27939;SDS011;15275;51.716;14.324;2023-01-15T07:09:22;1.50;;;0.50;;
27939;SDS011;15275;51.716;14.324;2023-01-15T07:11:48;0.40;;;0.30;;
27939;SDS011;15275;51.716;14.324;2023-01-15T07:14:18;0.40;;;0.40;;
27939;SDS011;15275;51.716;14.324;2023-01-15T07:16:46;0.35;;;0.30;;
27939;SDS011;15275;51.716;14.324;2023-01-15T07:19:12;1.75;;;0.60;;
27939;SDS011;15275;51.716;14.324;2023-01-15T07:21:39;0.70;;;0.47;;
27939;SDS011;15275;51.716;14.324;2023-01-15T07:24:05;1.50;;;0.30;;
27939;SDS011;15275;51.716;14.324;2023-01-15T07:26:32;0.30;;;0.30;;
27939;SDS011;15275;51.716;14.324;2023-01-15T07:28:58;0.50;;;0.40;;
27939;SDS011;15275;51.716;14.324;2023-01-15T07:31:24;0.30;;;0.30;;
27939;SDS011;15275;51.716;14.324;2023-01-15T07:33:50;0.70;;;0.50;;
27939;SDS011;15275;51.716;14.324;2023-01-15T07:36:15;1.10;;;0.43;;
27939;SDS011;15275;51.716;14.324;2023-01-15T07:38:41;0.77;;;0.40;;
27939;SDS011;15275;51.716;14.324;2023-01-15T07:41:07;0.50;;;0.50;;
27939;SDS011;15275;51.716;14.324;2023-01-15T07:43:52;2.25;;;0.57;;
27939;SDS011;15275;51.716;14.324;2023-01-15T07:46:36;1.90;;;0.60;;
27939;SDS011;15275;51.716;14.324;2023-01-15T07:49:20;0.80;;;0.43;;
27939;SDS011;15275;51.716;14.324;2023-01-15T07:52:04;0.73;;;0.47;;
27939;SDS011;15275;51.716;14.324;2023-01-15T07:54:30;2.67;;;0.60;;
27939;SDS011;15275;51.716;14.324;2023-01-15T07:56:56;1.05;;;0.52;;
27939;SDS011;15275;51.716;14.324;2023-01-15T07:59:22;0.70;;;0.43;;
27939;SDS011;15275;51.716;14.324;2023-01-15T08:01:49;0.50;;;0.50;;
27939;SDS011;15275;51.716;14.324;2023-01-15T08:04:15;0.38;;;0.38;;
27939;SDS011;15275;51.716;14.324;2023-01-15T08:06:41;0.70;;;0.70;;
27939;SDS011;15275;51.716;14.324;2023-01-15T08:09:06;1.08;;;0.60;;
27939;SDS011;15275;51.716;14.324;2023-01-15T08:11:32;2.03;;;0.75;;
27939;SDS011;15275;51.716;14.324;2023-01-15T08:14:17;1.58;;;1.17;;
27939;SDS011;15275;51.716;14.324;2023-01-15T08:17:01;2.17;;;1.30;;
27939;SDS011;15275;51.716;14.324;2023-01-15T08:19:27;2.28;;;1.45;;
27939;SDS011;15275;51.716;14.324;2023-01-15T08:21:54;3.00;;;0.98;;
27939;SDS011;15275;51.716;14.324;2023-01-15T08:24:21;2.50;;;0.90;;
27939;SDS011;15275;51.716;14.324;2023-01-15T08:26:48;1.15;;;0.85;;
27939;SDS011;15275;51.716;14.324;2023-01-15T08:29:14;1.27;;;0.85;;
27939;SDS011;15275;51.716;14.324;2023-01-15T08:31:40;1.42;;;0.65;;
27939;SDS011;15275;51.716;14.324;2023-01-15T08:34:06;0.80;;;0.70;;
27939;SDS011;15275;51.716;14.324;2023-01-15T08:36:32;1.05;;;0.77;;
27939;SDS011;15275;51.716;14.324;2023-01-15T08:38:58;2.40;;;1.50;;
27939;SDS011;15275;51.716;14.324;2023-01-15T08:41:24;11.93;;;5.75;;
27939;SDS011;15275;51.716;14.324;2023-01-15T08:43:50;8.88;;;4.28;;
27939;SDS011;15275;51.716;14.324;2023-01-15T08:46:16;6.63;;;2.58;;
27939;SDS011;15275;51.716;14.324;2023-01-15T08:48:42;3.13;;;1.80;;
27939;SDS011;15275;51.716;14.324;2023-01-15T08:51:09;2.92;;;1.50;;
27939;SDS011;15275;51.716;14.324;2023-01-15T08:53:36;2.72;;;1.17;;
27939;SDS011;15275;51.716;14.324;2023-01-15T08:56:03;1.85;;;0.98;;
27939;SDS011;15275;51.716;14.324;2023-01-15T08:58:36;3.30;;;0.83;;
27939;SDS011;15275;51.716;14.324;2023-01-15T09:01:05;1.30;;;0.70;;
27939;SDS011;15275;51.716;14.324;2023-01-15T09:03:34;1.00;;;0.73;;
27939;SDS011;15275;51.716;14.324;2023-01-15T09:06:00;1.08;;;0.63;;
27939;SDS011;15275;51.716;14.324;2023-01-15T09:08:28;0.68;;;0.60;;
27939;SDS011;15275;51.716;14.324;2023-01-15T09:10:57;0.82;;;0.80;;
27939;SDS011;15275;51.716;14.324;2023-01-15T09:13:26;0.57;;;0.57;;
27939;SDS011;15275;51.716;14.324;2023-01-15T09:15:57;1.40;;;0.70;;
27939;SDS011;15275;51.716;14.324;2023-01-15T09:18:27;2.42;;;0.73;;
27939;SDS011;15275;51.716;14.324;2023-01-15T09:20:54;2.10;;;0.77;;
27939;SDS011;15275;51.716;14.324;2023-01-15T09:23:20;1.17;;;0.60;;
27939;SDS011;15275;51.716;14.324;2023-01-15T09:25:53;3.72;;;1.50;;
27939;SDS011;15275;51.716;14.324;2023-01-15T09:28:22;0.82;;;0.77;;
27939;SDS011;15275;51.716;14.324;2023-01-15T09:30:48;1.42;;;0.70;;
27939;SDS011;15275;51.716;14.324;2023-01-15T09:33:14;1.98;;;0.77;;
27939;SDS011;15275;51.716;14.324;2023-01-15T09:35:44;1.20;;;0.60;;
27939;SDS011;15275;51.716;14.324;2023-01-15T09:38:10;0.50;;;0.50;;
27939;SDS011;15275;51.716;14.324;2023-01-15T09:41:00;0.77;;;0.60;;
27939;SDS011;15275;51.716;14.324;2023-01-15T09:43:49;3.47;;;0.90;;
27939;SDS011;15275;51.716;14.324;2023-01-15T09:46:38;2.65;;;0.68;;
27939;SDS011;15275;51.716;14.324;2023-01-15T09:55:04;1.02;;;0.70;;
27939;SDS011;15275;51.716;14.324;2023-01-15T09:57:40;2.35;;;0.77;;
27939;SDS011;15275;51.716;14.324;2023-01-15T10:00:12;0.55;;;0.55;;
27939;SDS011;15275;51.716;14.324;2023-01-15T10:02:45;0.63;;;0.40;;
27939;SDS011;15275;51.716;14.324;2023-01-15T10:05:29;0.60;;;0.60;;
27939;SDS011;15275;51.716;14.324;2023-01-15T10:08:13;2.47;;;0.50;;
27939;SDS011;15275;51.716;14.324;2023-01-15T10:10:46;0.52;;;0.50;;
27939;SDS011;15275;51.716;14.324;2023-01-15T10:15:46;0.60;;;0.50;;
27939;SDS011;15275;51.716;14.324;2023-01-15T10:18:17;2.00;;;1.80;;
27939;SDS011;15275;51.716;14.324;2023-01-15T10:21:30;1.88;;;1.15;;
27939;SDS011;15275;51.716;14.324;2023-01-15T10:24:16;0.95;;;0.90;;
27939;SDS011;15275;51.716;14.324;2023-01-15T10:27:24;0.93;;;0.68;;
27939;SDS011;15275;51.716;14.324;2023-01-15T10:29:59;0.52;;;0.52;;
27939;SDS011;15275;51.716;14.324;2023-01-15T10:46:13;0.60;;;0.60;;
27939;SDS011;15275;51.716;14.324;2023-01-15T10:51:43;1.13;;;0.93;;
27939;SDS011;15275;51.716;14.324;2023-01-15T10:54:45;1.05;;;0.93;;
27939;SDS011;15275;51.716;14.324;2023-01-15T11:00:16;0.88;;;0.70;;
27939;SDS011;15275;51.716;14.324;2023-01-15T11:02:43;0.93;;;0.63;;
27939;SDS011;15275;51.716;14.324;2023-01-15T11:05:19;0.60;;;0.60;;
27939;SDS011;15275;51.716;14.324;2023-01-15T11:07:46;0.70;;;0.50;;
27939;SDS011;15275;51.716;14.324;2023-01-15T11:10:16;2.95;;;0.60;;
27939;SDS011;15275;51.716;14.324;2023-01-15T11:12:57;0.55;;;0.50;;
27939;SDS011;15275;51.716;14.324;2023-01-15T11:15:59;1.85;;;1.00;;
27939;SDS011;15275;51.716;14.324;2023-01-15T11:18:44;1.83;;;0.60;;
27939;SDS011;15275;51.716;14.324;2023-01-15T11:21:29;0.75;;;0.70;;
27939;SDS011;15275;51.716;14.324;2023-01-15T11:23:56;1.08;;;0.90;;
27939;SDS011;15275;51.716;14.324;2023-01-15T11:28:54;0.95;;;0.80;;
27939;SDS011;15275;51.716;14.324;2023-01-15T11:31:33;1.30;;;0.80;;
27939;SDS011;15275;51.716;14.324;2023-01-15T11:34:02;1.58;;;1.00;;
27939;SDS011;15275;51.716;14.324;2023-01-15T11:36:31;1.45;;;0.70;;
27939;SDS011;15275;51.716;14.324;2023-01-15T11:38:58;1.17;;;1.02;;
27939;SDS011;15275;51.716;14.324;2023-01-15T11:41:29;1.10;;;0.90;;
27939;SDS011;15275;51.716;14.324;2023-01-15T11:44:18;1.77;;;0.73;;
27939;SDS011;15275;51.716;14.324;2023-01-15T11:47:13;0.70;;;0.70;;
27939;SDS011;15275;51.716;14.324;2023-01-15T11:50:01;1.05;;;0.93;;
27939;SDS011;15275;51.716;14.324;2023-01-15T11:52:59;0.75;;;0.70;;
27939;SDS011;15275;51.716;14.324;2023-01-15T11:55:25;1.05;;;0.95;;
27939;SDS011;15275;51.716;14.324;2023-01-15T11:57:53;2.42;;;1.10;;
27939;SDS011;15275;51.716;14.324;2023-01-15T12:00:21;0.82;;;0.77;;
27939;SDS011;15275;51.716;14.324;2023-01-15T12:02:51;0.88;;;0.85;;
27939;SDS011;15275;51.716;14.324;2023-01-15T12:05:33;0.63;;;0.57;;
27939;SDS011;15275;51.716;14.324;2023-01-15T12:08:01;0.88;;;0.70;;
27939;SDS011;15275;51.716;14.324;2023-01-15T12:10:48;1.92;;;1.05;;
27939;SDS011;15275;51.716;14.324;2023-01-15T12:30:23;0.50;;;0.50;;
27939;SDS011;15275;51.716;14.324;2023-01-15T12:33:09;0.77;;;0.70;;
27939;SDS011;15275;51.716;14.324;2023-01-15T12:36:49;0.95;;;0.60;;
27939;SDS011;15275;51.716;14.324;2023-01-15T12:39:34;0.85;;;0.75;;
27939;SDS011;15275;51.716;14.324;2023-01-15T12:42:13;1.40;;;0.95;;
27939;SDS011;15275;51.716;14.324;2023-01-15T12:45:04;1.77;;;1.30;;
27939;SDS011;15275;51.716;14.324;2023-01-15T13:01:28;0.63;;;0.63;;
27939;SDS011;15275;51.716;14.324;2023-01-15T13:04:39;0.60;;;0.50;;
27939;SDS011;15275;51.716;14.324;2023-01-15T13:09:51;2.00;;;0.75;;
27939;SDS011;15275;51.716;14.324;2023-01-15T13:12:32;0.80;;;0.50;;
27939;SDS011;15275;51.716;14.324;2023-01-15T13:14:59;0.55;;;0.50;;
27939;SDS011;15275;51.716;14.324;2023-01-15T13:20:49;1.58;;;0.70;;
27939;SDS011;15275;51.716;14.324;2023-01-15T13:28:42;0.40;;;0.40;;
27939;SDS011;15275;51.716;14.324;2023-01-15T13:32:10;0.95;;;0.55;;
27939;SDS011;15275;51.716;14.324;2023-01-15T13:34:49;0.90;;;0.60;;
27939;SDS011;15275;51.716;14.324;2023-01-15T13:37:46;1.55;;;0.68;;
27939;SDS011;15275;51.716;14.324;2023-01-15T13:40:31;0.70;;;0.57;;
27939;SDS011;15275;51.716;14.324;2023-01-15T13:43:03;0.60;;;0.57;;
27939;SDS011;15275;51.716;14.324;2023-01-15T13:45:35;0.80;;;0.60;;
27939;SDS011;15275;51.716;14.324;2023-01-15T13:48:16;1.17;;;0.77;;
27939;SDS011;15275;51.716;14.324;2023-01-15T13:50:59;0.98;;;0.73;;
27939;SDS011;15275;51.716;14.324;2023-01-15T13:53:29;1.33;;;0.60;;
27939;SDS011;15275;51.716;14.324;2023-01-15T13:55:59;0.77;;;0.47;;
27939;SDS011;15275;51.716;14.324;2023-01-15T13:58:31;0.68;;;0.38;;
27939;SDS011;15275;51.716;14.324;2023-01-15T14:01:21;0.82;;;0.55;;
27939;SDS011;15275;51.716;14.324;2023-01-15T14:09:13;1.17;;;0.52;;
27939;SDS011;15275;51.716;14.324;2023-01-15T14:11:56;0.60;;;0.40;;
27939;SDS011;15275;51.716;14.324;2023-01-15T14:23:27;2.53;;;1.42;;
27939;SDS011;15275;51.716;14.324;2023-01-15T14:35:21;1.85;;;1.25;;
27939;SDS011;15275;51.716;14.324;2023-01-15T14:37:53;1.73;;;1.10;;
27939;SDS011;15275;51.716;14.324;2023-01-15T14:40:23;1.20;;;0.65;;
27939;SDS011;15275;51.716;14.324;2023-01-15T14:42:55;0.82;;;0.70;;
27939;SDS011;15275;51.716;14.324;2023-01-15T14:45:29;1.08;;;0.60;;
27939;SDS011;15275;51.716;14.324;2023-01-15T14:51:07;0.73;;;0.50;;
27939;SDS011;15275;51.716;14.324;2023-01-15T14:53:47;3.88;;;0.70;;
27939;SDS011;15275;51.716;14.324;2023-01-15T14:56:36;1.15;;;0.68;;
27939;SDS011;15275;51.716;14.324;2023-01-15T14:59:32;0.93;;;0.40;;
27939;SDS011;15275;51.716;14.324;2023-01-15T15:02:53;0.83;;;0.63;;
27939;SDS011;15275;51.716;14.324;2023-01-15T15:05:04;0.57;;;0.50;;
27939;SDS011;15275;51.716;14.324;2023-01-15T15:07:39;0.80;;;0.50;;
27939;SDS011;15275;51.716;14.324;2023-01-15T15:16:03;0.40;;;0.40;;
27939;SDS011;15275;51.716;14.324;2023-01-15T15:21:32;0.55;;;0.40;;
27939;SDS011;15275;51.716;14.324;2023-01-15T15:24:26;2.22;;;0.75;;
27939;SDS011;15275;51.716;14.324;2023-01-15T15:26:54;0.52;;;0.50;;
27939;SDS011;15275;51.716;14.324;2023-01-15T15:29:20;1.25;;;0.73;;
27939;SDS011;15275;51.716;14.324;2023-01-15T15:31:47;0.40;;;0.35;;
27939;SDS011;15275;51.716;14.324;2023-01-15T15:34:26;4.45;;;0.60;;
27939;SDS011;15275;51.716;14.324;2023-01-15T15:37:00;1.45;;;0.30;;
27939;SDS011;15275;51.716;14.324;2023-01-15T15:42:41;1.00;;;0.43;;
27939;SDS011;15275;51.716;14.324;2023-01-15T15:45:34;0.60;;;0.50;;
27939;SDS011;15275;51.716;14.324;2023-01-15T15:48:20;1.83;;;0.75;;
27939;SDS011;15275;51.716;14.324;2023-01-15T15:54:26;2.63;;;1.17;;
27939;SDS011;15275;51.716;14.324;2023-01-15T15:59:46;2.45;;;1.20;;
27939;SDS011;15275;51.716;14.324;2023-01-15T16:04:47;1.90;;;1.33;;
27939;SDS011;15275;51.716;14.324;2023-01-15T16:07:28;2.55;;;1.00;;
27939;SDS011;15275;51.716;14.324;2023-01-15T16:12:38;0.50;;;0.50;;
27939;SDS011;15275;51.716;14.324;2023-01-15T16:15:17;0.70;;;0.50;;
27939;SDS011;15275;51.716;14.324;2023-01-15T16:17:47;0.73;;;0.60;;
27939;SDS011;15275;51.716;14.324;2023-01-15T16:20:15;0.50;;;0.50;;
27939;SDS011;15275;51.716;14.324;2023-01-15T16:22:44;2.10;;;1.20;;
27939;SDS011;15275;51.716;14.324;2023-01-15T16:27:56;0.68;;;0.60;;
27939;SDS011;15275;51.716;14.324;2023-01-15T16:30:25;0.88;;;0.70;;
27939;SDS011;15275;51.716;14.324;2023-01-15T16:32:53;2.17;;;1.42;;
27939;SDS011;15275;51.716;14.324;2023-01-15T16:35:27;1.77;;;1.10;;
27939;SDS011;15275;51.716;14.324;2023-01-15T16:37:56;3.15;;;1.92;;
27939;SDS011;15275;51.716;14.324;2023-01-15T16:45:28;1.02;;;0.70;;
27939;SDS011;15275;51.716;14.324;2023-01-15T16:50:32;1.10;;;0.50;;
27939;SDS011;15275;51.716;14.324;2023-01-15T16:53:01;0.75;;;0.60;;
27939;SDS011;15275;51.716;14.324;2023-01-15T17:01:00;1.20;;;0.73;;
27939;SDS011;15275;51.716;14.324;2023-01-15T17:04:14;0.85;;;0.52;;
27939;SDS011;15275;51.716;14.324;2023-01-15T17:09:42;1.42;;;0.52;;
27939;SDS011;15275;51.716;14.324;2023-01-15T17:12:17;1.02;;;0.60;;
27939;SDS011;15275;51.716;14.324;2023-01-15T17:14:53;0.80;;;0.60;;
27939;SDS011;15275;51.716;14.324;2023-01-15T17:17:24;0.70;;;0.52;;
27939;SDS011;15275;51.716;14.324;2023-01-15T17:19:53;4.40;;;0.60;;
27939;SDS011;15275;51.716;14.324;2023-01-15T17:24:51;0.70;;;0.50;;
27939;SDS011;15275;51.716;14.324;2023-01-15T17:27:20;0.90;;;0.68;;
27939;SDS011;15275;51.716;14.324;2023-01-15T17:29:47;0.55;;;0.55;;
27939;SDS011;15275;51.716;14.324;2023-01-15T17:32:13;1.25;;;0.50;;
27939;SDS011;15275;51.716;14.324;2023-01-15T17:34:56;0.52;;;0.52;;
27939;SDS011;15275;51.716;14.324;2023-01-15T17:37:22;0.85;;;0.55;;
27939;SDS011;15275;51.716;14.324;2023-01-15T17:39:48;2.80;;;1.02;;
27939;SDS011;15275;51.716;14.324;2023-01-15T17:42:14;0.88;;;0.55;;
27939;SDS011;15275;51.716;14.324;2023-01-15T17:44:44;0.50;;;0.50;;
27939;SDS011;15275;51.716;14.324;2023-01-15T17:47:11;1.77;;;0.90;;
27939;SDS011;15275;51.716;14.324;2023-01-15T17:49:37;0.60;;;0.47;;
27939;SDS011;15275;51.716;14.324;2023-01-15T17:52:03;1.35;;;0.93;;
27939;SDS011;15275;51.716;14.324;2023-01-15T17:54:32;1.20;;;0.90;;
27939;SDS011;15275;51.716;14.324;2023-01-15T17:57:16;3.53;;;0.90;;
27939;SDS011;15275;51.716;14.324;2023-01-15T18:00:01;0.55;;;0.55;;